Time,TemperatureF,DewpointF,PressureIn,WindDirection,WindDirectionDegrees,WindSpeedMPH,WindSpeedGustMPH,Humidity,HourlyPrecipIn,Conditions,Clouds,dailyrainin,SoftwareType,DateUTC
2013-09-30 00:10:00,49.8,49.0,29.97,East,96,0.0,0.0,96,0.00,,,0.00,weatherlink.com 1.10,2013-09-30 05:10:00,
2013-09-30 00:25:00,49.3,48.0,29.97,East,96,0.0,0.0,96,0.00,,,0.00,weatherlink.com 1.10,2013-09-30 05:25:00,
2013-09-30 00:40:00,49.0,48.0,29.97,East,96,0.0,0.0,96,0.00,,,0.00,weatherlink.com 1.10,2013-09-30 05:40:00,
2013-09-30 00:55:00,48.8,48.0,29.97,East,96,0.0,0.0,97,0.00,,,0.00,weatherlink.com 1.10,2013-09-30 05:55:00,
2013-09-30 01:10:00,48.9,48.0,29.97,East,96,0.0,0.0,97,0.00,,,0.00,weatherlink.com 1.10,2013-09-30 06:10:00,
2013-09-30 01:25:00,48.8,48.0,29.97,East,96,0.0,0.0,97,0.00,,,0.00,weatherlink.com 1.10,2013-09-30 06:25:00,
2013-09-30 01:40:00,49.1,48.0,29.97,East,96,0.0,0.0,96,0.00,,,0.00,weatherlink.com 1.10,2013-09-30 06:40:00,
2013-09-30 01:55:00,52.9,47.0,29.96,East,82,0.0,0.0,81,0.00,,,0.00,weatherlink.com 1.10,2013-09-30 06:55:00,
2013-09-30 02:10:00,51.9,47.0,29.96,East,82,0.0,0.0,83,0.00,,,0.00,weatherlink.com 1.10,2013-09-30 07:10:00,
2013-09-30 02:25:00,52.6,47.0,29.95,ENE,73,0.0,0.0,80,0.00,,,0.00,weatherlink.com 1.10,2013-09-30 07:25:00,
2013-09-30 02:40:00,51.7,47.0,29.95,ENE,73,0.0,0.0,85,0.00,,,0.00,weatherlink.com 1.10,2013-09-30 07:40:00,
2013-09-30 02:55:00,50.7,46.0,29.94,ENE,72,0.0,0.0,85,0.00,,,0.00,weatherlink.com 1.10,2013-09-30 07:55:00,
2013-09-30 03:10:00,51.4,46.0,29.94,ENE,73,0.0,0.0,83,0.00,,,0.00,weatherlink.com 1.10,2013-09-30 08:10:00,
2013-09-30 03:25:00,50.9,46.0,29.94,ENE,74,0.0,0.0,84,0.00,,,0.00,weatherlink.com 1.10,2013-09-30 08:25:00,
2013-09-30 03:40:00,50.8,47.0,29.94,ENE,73,0.0,0.0,85,0.00,,,0.00,weatherlink.com 1.10,2013-09-30 08:40:00,
2013-09-30 03:55:00,50.5,47.0,29.94,ENE,74,0.0,0.0,86,0.00,,,0.00,weatherlink.com 1.10,2013-09-30 08:55:00,
2013-09-30 04:10:00,50.5,47.0,29.94,ENE,74,0.0,0.0,87,0.00,,,0.00,weatherlink.com 1.10,2013-09-30 09:10:00,
2013-09-30 04:25:00,49.3,46.0,29.95,ENE,73,0.0,0.0,89,0.00,,,0.00,weatherlink.com 1.10,2013-09-30 09:25:00,
2013-09-30 04:40:00,47.6,46.0,29.95,ENE,73,0.0,0.0,93,0.00,,,0.00,weatherlink.com 1.10,2013-09-30 09:40:00,
2013-09-30 04:55:00,46.6,45.0,29.95,ENE,73,0.0,0.0,94,0.00,,,0.00,weatherlink.com 1.10,2013-09-30 09:55:00,
2013-09-30 05:10:00,47.1,46.0,29.95,ENE,73,0.0,0.0,96,0.00,,,0.00,weatherlink.com 1.10,2013-09-30 10:10:00,
2013-09-30 05:25:00,48.0,46.0,29.96,ENE,73,0.0,0.0,94,0.00,,,0.00,weatherlink.com 1.10,2013-09-30 10:25:00,
2013-09-30 05:40:00,46.4,45.0,29.96,ENE,73,0.0,0.0,94,0.00,,,0.00,weatherlink.com 1.10,2013-09-30 10:40:00,
2013-09-30 05:55:00,47.2,46.0,29.96,East,89,0.0,0.0,97,0.00,,,0.00,weatherlink.com 1.10,2013-09-30 10:55:00,
2013-09-30 06:10:00,47.6,46.0,29.97,East,84,0.0,0.0,95,0.00,,,0.00,weatherlink.com 1.10,2013-09-30 11:10:00,
2013-09-30 06:25:00,47.9,47.0,29.96,East,84,0.0,0.0,95,0.00,,,0.00,weatherlink.com 1.10,2013-09-30 11:25:00,
2013-09-30 06:40:00,48.2,47.0,29.96,East,85,0.0,0.0,94,0.00,,,0.00,weatherlink.com 1.10,2013-09-30 11:40:00,
2013-09-30 06:55:00,48.0,47.0,29.96,East,95,0.0,0.0,95,0.00,,,0.00,weatherlink.com 1.10,2013-09-30 11:55:00,
2013-09-30 07:10:00,48.6,48.0,29.96,East,101,0.0,0.0,96,0.00,,,0.00,weatherlink.com 1.10,2013-09-30 12:10:00,
2013-09-30 07:25:00,49.2,48.0,29.96,East,82,0.0,0.0,96,0.00,,,0.00,weatherlink.com 1.10,2013-09-30 12:25:00,
2013-09-30 07:40:00,50.0,49.0,29.96,East,84,0.0,0.0,95,0.00,,,0.00,weatherlink.com 1.10,2013-09-30 12:40:00,
2013-09-30 07:55:00,51.0,50.0,29.97,East,82,0.0,0.0,95,0.00,,,0.00,weatherlink.com 1.10,2013-09-30 12:55:00,
2013-09-30 08:10:00,51.8,50.0,29.97,ENE,77,2.0,3.0,94,0.00,,,0.00,weatherlink.com 1.10,2013-09-30 13:10:00,
2013-09-30 08:25:00,53.2,51.0,29.96,ENE,71,2.0,4.0,93,0.00,,,0.00,weatherlink.com 1.10,2013-09-30 13:25:00,
2013-09-30 08:40:00,54.6,52.0,29.96,ENE,65,0.0,3.0,89,0.00,,,0.00,weatherlink.com 1.10,2013-09-30 13:40:00,
2013-09-30 08:55:00,55.1,51.0,29.97,SSE,155,0.0,3.0,87,0.00,,,0.00,weatherlink.com 1.10,2013-09-30 13:55:00,
2013-09-30 09:10:00,57.3,52.0,29.96,WSW,243,2.0,3.0,83,0.00,,,0.00,weatherlink.com 1.10,2013-09-30 14:10:00,
2013-09-30 09:26:00,58.4,52.0,29.97,WSW,243,1.0,3.0,79,0.00,,,0.00,weatherlink.com 1.10,2013-09-30 14:26:00,
2013-09-30 09:41:00,61.7,54.0,29.97,SW,222,1.0,2.0,75,0.00,,,0.00,weatherlink.com 1.10,2013-09-30 14:41:00,
2013-09-30 09:56:00,63.3,54.0,29.97,East,94,0.0,2.0,71,0.00,,,0.00,weatherlink.com 1.10,2013-09-30 14:56:00,
2013-09-30 10:11:00,64.9,55.0,29.97,East,97,2.0,3.0,70,0.00,,,0.00,weatherlink.com 1.10,2013-09-30 15:11:00,
2013-09-30 10:26:00,65.7,55.0,29.95,SW,217,0.0,6.0,69,0.00,,,0.00,weatherlink.com 1.10,2013-09-30 15:26:00,
2013-09-30 10:41:00,66.7,54.0,29.94,SW,214,3.0,7.0,64,0.00,,,0.00,weatherlink.com 1.10,2013-09-30 15:41:00,
2013-09-30 10:56:00,67.4,54.0,29.95,WSW,249,2.0,4.0,62,0.00,,,0.00,weatherlink.com 1.10,2013-09-30 15:56:00,
2013-09-30 11:11:00,67.9,55.0,29.95,WSW,238,2.0,7.0,63,0.00,,,0.00,weatherlink.com 1.10,2013-09-30 16:11:00,
2013-09-30 11:26:00,70.0,56.0,29.94,SW,214,2.0,5.0,61,0.00,,,0.00,weatherlink.com 1.10,2013-09-30 16:26:00,
2013-09-30 11:41:00,70.6,54.0,29.94,South,184,6.0,11.0,56,0.00,,,0.00,weatherlink.com 1.10,2013-09-30 16:41:00,
2013-09-30 11:56:00,71.8,55.0,29.93,SW,215,5.0,9.0,56,0.00,,,0.00,weatherlink.com 1.10,2013-09-30 16:56:00,
2013-09-30 12:11:00,72.0,55.0,29.93,West,260,4.0,10.0,55,0.00,,,0.00,weatherlink.com 1.10,2013-09-30 17:11:00,
2013-09-30 12:26:00,72.2,54.0,29.93,SSW,211,5.0,14.0,53,0.00,,,0.00,weatherlink.com 1.10,2013-09-30 17:26:00,
2013-09-30 12:41:00,73.6,56.0,29.92,ESE,118,4.0,8.0,55,0.00,,,0.00,weatherlink.com 1.10,2013-09-30 17:41:00,
2013-09-30 12:56:00,74.5,54.0,29.92,SW,224,7.0,7.0,49,0.00,,,0.00,weatherlink.com 1.10,2013-09-30 17:56:00,
2013-09-30 13:11:00,74.2,56.0,29.91,West,263,5.0,10.0,53,0.00,,,0.00,weatherlink.com 1.10,2013-09-30 18:11:00,
2013-09-30 13:26:00,74.5,56.0,29.91,SSW,194,4.0,11.0,52,0.00,,,0.00,weatherlink.com 1.10,2013-09-30 18:26:00,
2013-09-30 13:41:00,74.9,54.0,29.90,SSW,197,5.0,10.0,49,0.00,,,0.00,weatherlink.com 1.10,2013-09-30 18:41:00,
2013-09-30 13:56:00,75.5,55.0,29.89,WSW,238,4.0,12.0,49,0.00,,,0.00,weatherlink.com 1.10,2013-09-30 18:56:00,
2013-09-30 14:11:00,76.2,55.0,29.88,SW,231,11.0,11.0,48,0.00,,,0.00,weatherlink.com 1.10,2013-09-30 19:11:00,
2013-09-30 14:26:00,76.0,55.0,29.88,West,259,2.0,13.0,49,0.00,,,0.00,weatherlink.com 1.10,2013-09-30 19:26:00,
2013-09-30 14:41:00,76.9,56.0,29.88,South,170,9.0,11.0,48,0.00,,,0.00,weatherlink.com 1.10,2013-09-30 19:41:00,
2013-09-30 14:57:00,77.0,56.0,29.88,WSW,255,6.0,10.0,49,0.00,,,0.00,weatherlink.com 1.10,2013-09-30 19:57:00,
2013-09-30 15:12:00,77.5,56.0,29.87,ESE,105,2.0,11.0,47,0.00,,,0.00,weatherlink.com 1.10,2013-09-30 20:12:00,
2013-09-30 15:27:00,76.5,55.0,29.87,SW,222,6.0,12.0,48,0.00,,,0.00,weatherlink.com 1.10,2013-09-30 20:27:00,
2013-09-30 15:42:00,76.9,56.0,29.86,SW,231,4.0,11.0,48,0.00,,,0.00,weatherlink.com 1.10,2013-09-30 20:42:00,
2013-09-30 15:57:00,76.4,56.0,29.86,SW,219,10.0,12.0,49,0.00,,,0.00,weatherlink.com 1.10,2013-09-30 20:57:00,
2013-09-30 16:12:00,77.0,56.0,29.85,SSW,195,8.0,10.0,49,0.00,,,0.00,weatherlink.com 1.10,2013-09-30 21:12:00,
2013-09-30 16:27:00,77.2,56.0,29.85,SSW,201,3.0,10.0,49,0.00,,,0.00,weatherlink.com 1.10,2013-09-30 21:27:00,
2013-09-30 16:42:00,77.2,58.0,29.85,WSW,258,5.0,7.0,51,0.00,,,0.00,weatherlink.com 1.10,2013-09-30 21:42:00,
2013-09-30 16:57:00,77.2,58.0,29.85,WSW,245,7.0,7.0,51,0.00,,,0.00,weatherlink.com 1.10,2013-09-30 21:57:00,
2013-09-30 17:12:00,76.9,58.0,29.85,WSW,243,5.0,9.0,52,0.00,,,0.00,weatherlink.com 1.10,2013-09-30 22:12:00,
2013-09-30 17:27:00,76.6,57.0,29.85,West,276,3.0,10.0,51,0.00,,,0.00,weatherlink.com 1.10,2013-09-30 22:27:00,
2013-09-30 17:42:00,75.3,57.0,29.85,West,278,3.0,9.0,54,0.00,,,0.00,weatherlink.com 1.10,2013-09-30 22:42:00,
2013-09-30 17:57:00,74.2,58.0,29.86,SW,215,2.0,4.0,57,0.00,,,0.00,weatherlink.com 1.10,2013-09-30 22:57:00,
2013-09-30 18:12:00,73.2,58.0,29.86,SSW,207,3.0,8.0,60,0.00,,,0.00,weatherlink.com 1.10,2013-09-30 23:12:00,
2013-09-30 18:27:00,72.2,59.0,29.86,SSW,205,3.0,4.0,63,0.00,,,0.00,weatherlink.com 1.10,2013-09-30 23:27:00,
2013-09-30 18:42:00,70.9,58.0,29.86,SW,222,1.0,3.0,65,0.00,,,0.00,weatherlink.com 1.10,2013-09-30 23:42:00,
2013-09-30 18:57:00,69.6,59.0,29.86,SW,224,0.0,2.0,68,0.00,,,0.00,weatherlink.com 1.10,2013-09-30 23:57:00,
2013-09-30 19:12:00,68.5,58.0,29.86,South,177,0.0,1.0,70,0.00,,,0.00,weatherlink.com 1.10,2013-10-01 00:12:00,
2013-09-30 19:27:00,67.6,59.0,29.86,SSW,201,0.0,1.0,73,0.00,,,0.00,weatherlink.com 1.10,2013-10-01 00:27:00,
2013-09-30 19:42:00,66.9,59.0,29.86,SSW,205,0.0,1.0,75,0.00,,,0.00,weatherlink.com 1.10,2013-10-01 00:42:00,
2013-09-30 19:57:00,66.4,59.0,29.86,SW,218,1.0,1.0,77,0.00,,,0.00,weatherlink.com 1.10,2013-10-01 00:57:00,
2013-09-30 20:12:00,65.8,59.0,29.86,SSW,211,0.0,1.0,79,0.00,,,0.00,weatherlink.com 1.10,2013-10-01 01:12:00,
2013-09-30 20:27:00,64.9,59.0,29.86,SSW,211,0.0,1.0,82,0.00,,,0.00,weatherlink.com 1.10,2013-10-01 01:27:00,
2013-09-30 20:42:00,64.7,59.0,29.87,SW,214,0.0,2.0,82,0.00,,,0.00,weatherlink.com 1.10,2013-10-01 01:42:00,
2013-09-30 20:57:00,64.4,60.0,29.87,SW,229,0.0,2.0,84,0.00,,,0.00,weatherlink.com 1.10,2013-10-01 01:57:00,
2013-09-30 21:12:00,64.0,60.0,29.87,SW,231,2.0,2.0,85,0.00,,,0.00,weatherlink.com 1.10,2013-10-01 02:12:00,
2013-09-30 21:27:00,64.0,60.0,29.87,South,180,0.0,3.0,85,0.00,,,0.00,weatherlink.com 1.10,2013-10-01 02:27:00,
2013-09-30 21:42:00,63.5,60.0,29.87,WSW,239,2.0,4.0,87,0.00,,,0.00,weatherlink.com 1.10,2013-10-01 02:42:00,
2013-09-30 21:57:00,63.7,60.0,29.88,SSW,197,3.0,5.0,87,0.00,,,0.00,weatherlink.com 1.10,2013-10-01 02:57:00,
2013-09-30 22:12:00,63.2,59.0,29.88,ESE,120,0.0,2.0,87,0.00,,,0.00,weatherlink.com 1.10,2013-10-01 03:12:00,
2013-09-30 22:27:00,62.3,59.0,29.87,SSE,158,0.0,1.0,89,0.00,,,0.00,weatherlink.com 1.10,2013-10-01 03:27:00,
2013-09-30 22:42:00,61.9,59.0,29.88,WSW,253,0.0,-999.0,90,-99.99,,,0.00,weatherlink.com 1.10,2013-10-01 03:42:00,
2013-09-30 22:57:00,61.8,59.0,29.88,SW,232,0.0,1.0,91,0.00,,,0.00,weatherlink.com 1.10,2013-10-01 03:57:00,
2013-09-30 23:12:00,61.4,59.0,29.87,ESE,105,0.0,1.0,92,0.00,,,0.00,weatherlink.com 1.10,2013-10-01 04:12:00,
2013-09-30 23:27:00,61.2,59.0,29.88,ESE,105,0.0,1.0,92,0.00,,,0.00,weatherlink.com 1.10,2013-10-01 04:27:00,
2013-09-30 23:42:00,60.9,59.0,29.88,East,95,0.0,1.0,93,0.00,,,0.00,weatherlink.com 1.10,2013-10-01 04:42:00,
2013-09-30 23:58:00,60.7,59.0,29.88,East,96,0.0,2.0,94,0.00,,,0.00,weatherlink.com 1.10,2013-10-01 04:58:00,